Ault, Kentucky
Current Conditions -  °F | °C
As of 10:10 AM on Wednesday 22 Oct 2014 (Local Time) from KSYM Reporting Station
Overcast Overcast  
Wind Chill: 43°   Ceiling: 1300
Heat Index: 46°   Visibility: 10mi
Dew Point: 41°   Wind: 7mph
Humidity: 81%   Direction: 360°N
Pressure: 30.28"   Gusts: NA
Location:  38.3543°N, 83.1837°W
Report Text: KSYM 221410Z AUTO 36006KT 10SM OVC013 08/05 A3028 RMK AO2
Loading
Personal Weather Stations






























Interactive Weather Map New forecast layout! Learn more

10-Day Weather Forecast

Advertisements
Track Severe Weather on mobile